Time;durP1;ratioP1;P1;durP2;ratioP2;P2;SDS_P1;SDS_P2;PMS_P1;PMS_P2;Temp;Humidity;BMP_temperature;BMP_pressure;BME280_temperature;BME280_humidity;BME280_pressure;Samples;Min_cycle;Max_cycle;Signal;HPM_P1;HPM_P2
2023/12/15 00:00:14;;;;;;;24.97;21.07;;;;;;;;;;4930440;28;20227;-88
2023/12/15 00:02:40;;;;;;;27.47;21.47;;;;;;;;;;4911578;29;20219;-88
2023/12/15 00:05:08;;;;;;;23.33;20.50;;;;;;;;;;4910753;28;20228;-84
2023/12/15 00:07:33;;;;;;;24.53;21.63;;;;;;;;;;4928309;28;20231;-86
2023/12/15 00:09:59;;;;;;;24.90;21.27;;;;;;;;;;4923484;29;20454;-85
2023/12/15 00:12:27;;;;;;;24.23;21.60;;;;;;;;;;4912653;28;20254;-87
2023/12/15 00:14:52;;;;;;;25.77;22.13;;;;;;;;;;4924793;29;20219;-87
2023/12/15 00:17:20;;;;;;;29.37;22.90;;;;;;;;;;4910311;28;20229;-86
2023/12/15 00:19:45;;;;;;;26.23;22.30;;;;;;;;;;4915487;29;20226;-86
2023/12/15 00:22:13;;;;;;;28.57;22.80;;;;;;;;;;4914860;28;20257;-85
2023/12/15 00:24:41;;;;;;;27.37;23.93;;;;;;;;;;4919017;29;20457;-84
2023/12/15 00:27:07;;;;;;;30.10;23.57;;;;;;;;;;4924391;28;20222;-87
2023/12/15 00:29:35;;;;;;;26.27;23.00;;;;;;;;;;4910844;29;20226;-87
2023/12/15 00:32:00;;;;;;;25.63;22.00;;;;;;;;;;4919908;29;20257;-87
2023/12/15 00:34:26;;;;;;;26.93;23.53;;;;;;;;;;4931899;28;20291;-88
2023/12/15 00:36:51;;;;;;;29.20;23.17;;;;;;;;;;4929735;29;20230;-86
2023/12/15 00:39:17;;;;;;;27.77;23.67;;;;;;;;;;4930561;28;20222;-86
2023/12/15 00:41:45;;;;;;;26.67;22.67;;;;;;;;;;4931569;28;20253;-88
2023/12/15 00:44:10;;;;;;;29.77;23.87;;;;;;;;;;4914097;28;20752;-86
2023/12/15 00:46:36;;;;;;;27.73;23.60;;;;;;;;;;4928365;29;20254;-85
2023/12/15 00:49:01;;;;;;;26.83;23.03;;;;;;;;;;4925358;29;20219;-87
2023/12/15 00:51:29;;;;;;;30.57;23.67;;;;;;;;;;4934398;28;20291;-86
2023/12/15 00:53:55;;;;;;;31.40;25.17;;;;;;;;;;4918212;29;20306;-85
2023/12/15 00:56:22;;;;;;;33.30;26.53;;;;;;;;;;4920500;28;20579;-85
2023/12/15 00:58:50;;;;;;;31.47;24.77;;;;;;;;;;4916480;29;20219;-85
2023/12/15 01:01:16;;;;;;;33.93;25.87;;;;;;;;;;4914449;28;20223;-86
2023/12/15 01:03:41;;;;;;;34.37;25.77;;;;;;;;;;4937600;28;20235;-86
2023/12/15 01:06:07;;;;;;;35.93;27.10;;;;;;;;;;4921468;28;20214;-87
2023/12/15 01:08:35;;;;;;;32.77;26.47;;;;;;;;;;4906681;28;20968;-86
2023/12/15 01:11:00;;;;;;;33.83;26.90;;;;;;;;;;4922157;29;20215;-86
2023/12/15 01:13:26;;;;;;;34.70;26.97;;;;;;;;;;4938971;28;20265;-86
2023/12/15 01:15:52;;;;;;;38.27;27.37;;;;;;;;;;4926450;29;20207;-86
2023/12/15 01:18:17;;;;;;;36.40;26.57;;;;;;;;;;4914680;28;20226;-86
2023/12/15 01:20:43;;;;;;;36.00;27.33;;;;;;;;;;4909665;29;20226;-86
2023/12/15 01:23:08;;;;;;;39.23;28.77;;;;;;;;;;4920236;28;20286;-87
2023/12/15 01:25:34;;;;;;;36.27;28.83;;;;;;;;;;4906688;28;20313;-86
2023/12/15 01:27:59;;;;;;;40.90;28.20;;;;;;;;;;4923707;29;20215;-87
2023/12/15 01:30:25;;;;;;;38.07;28.77;;;;;;;;;;4923702;28;20234;-86
2023/12/15 01:32:53;;;;;;;39.17;27.83;;;;;;;;;;4908061;29;20215;-88
2023/12/15 01:35:19;;;;;;;37.60;30.23;;;;;;;;;;4899841;28;20321;-87
2023/12/15 01:37:46;;;;;;;44.93;29.87;;;;;;;;;;4905752;29;20219;-86
2023/12/15 01:40:12;;;;;;;41.13;29.50;;;;;;;;;;4917634;28;20242;-87
2023/12/15 01:42:37;;;;;;;37.63;29.73;;;;;;;;;;4906137;28;20223;-88
2023/12/15 01:45:06;;;;;;;37.37;27.60;;;;;;;;;;4903738;28;20326;-87
2023/12/15 01:47:31;;;;;;;40.07;30.03;;;;;;;;;;4905145;28;20602;-89
2023/12/15 01:49:57;;;;;;;38.27;28.90;;;;;;;;;;4900849;29;20261;-89
2023/12/15 01:52:22;;;;;;;37.47;27.70;;;;;;;;;;4937396;28;20228;-85
2023/12/15 01:54:48;;;;;;;39.87;28.07;;;;;;;;;;4915310;29;20230;-87
2023/12/15 01:57:15;;;;;;;38.07;29.67;;;;;;;;;;4918952;28;20230;-86
2023/12/15 01:59:44;;;;;;;40.23;30.23;;;;;;;;;;4918455;28;20226;-86
2023/12/15 02:02:15;;;;;;;40.90;30.10;;;;;;;;;;4924244;28;20207;-86
2023/12/15 02:04:43;;;;;;;41.90;29.83;;;;;;;;;;4918902;28;20261;-88
2023/12/15 02:07:10;;;;;;;41.07;30.30;;;;;;;;;;4901694;28;20211;-88
2023/12/15 02:09:37;;;;;;;42.43;30.07;;;;;;;;;;4924714;29;20314;-86
2023/12/15 02:12:03;;;;;;;39.37;28.80;;;;;;;;;;4917373;28;20222;-86
2023/12/15 02:14:29;;;;;;;42.23;30.27;;;;;;;;;;4901818;28;20305;-86
2023/12/15 02:16:59;;;;;;;43.10;30.13;;;;;;;;;;4903739;29;20219;-85
2023/12/15 02:19:25;;;;;;;39.73;29.20;;;;;;;;;;4910706;28;20224;-87
2023/12/15 02:21:51;;;;;;;42.70;30.43;;;;;;;;;;4963048;28;20243;-86
2023/12/15 02:24:16;;;;;;;42.80;30.30;;;;;;;;;;4929697;28;20231;-86
2023/12/15 02:26:46;;;;;;;42.50;29.53;;;;;;;;;;4931704;28;20226;-86
2023/12/15 02:29:12;;;;;;;41.90;30.93;;;;;;;;;;4905714;28;20301;-87
2023/12/15 02:31:37;;;;;;;50.63;31.67;;;;;;;;;;4923825;29;20235;-85
2023/12/15 02:34:05;;;;;;;42.17;29.50;;;;;;;;;;4896849;28;20780;-86
2023/12/15 02:36:33;;;;;;;47.67;32.20;;;;;;;;;;4910041;29;20219;-87
2023/12/15 02:39:02;;;;;;;46.13;31.00;;;;;;;;;;4925509;29;20613;-86
2023/12/15 02:41:31;;;;;;;48.83;32.03;;;;;;;;;;4919763;28;20227;-87
2023/12/15 02:43:56;;;;;;;45.17;30.13;;;;;;;;;;4909591;29;20227;-88
2023/12/15 02:46:22;;;;;;;45.87;30.90;;;;;;;;;;4925400;28;20254;-88
2023/12/15 02:48:47;;;;;;;43.33;31.73;;;;;;;;;;4922669;29;20235;-88
2023/12/15 02:51:33;;;;;;;42.70;30.50;;;;;;;;;;4907748;28;20219;-87
2023/12/15 02:53:59;;;;;;;43.23;32.17;;;;;;;;;;4943281;28;20235;-87
2023/12/15 02:56:24;;;;;;;38.77;30.83;;;;;;;;;;4906224;28;20318;-88
2023/12/15 02:58:50;;;;;;;44.40;30.80;;;;;;;;;;4919390;29;20868;-87
2023/12/15 03:01:16;;;;;;;51.40;31.63;;;;;;;;;;4923107;28;20221;-87
2023/12/15 03:03:41;;;;;;;44.27;31.40;;;;;;;;;;4935541;28;20286;-89
2023/12/15 03:06:09;;;;;;;45.60;30.97;;;;;;;;;;4907970;28;20220;-88
2023/12/15 03:08:34;;;;;;;44.07;31.13;;;;;;;;;;4905666;29;20235;-87
2023/12/15 03:11:02;;;;;;;43.77;31.53;;;;;;;;;;4919636;29;20290;-86
2023/12/15 03:13:28;;;;;;;48.83;31.87;;;;;;;;;;4936614;28;20235;-86
2023/12/15 03:16:01;;;;;;;44.70;31.10;;;;;;;;;;4929341;29;20307;-89
2023/12/15 03:18:29;;;;;;;46.10;31.33;;;;;;;;;;4924307;28;20305;-84
2023/12/15 03:20:55;;;;;;;44.67;31.40;;;;;;;;;;4925552;29;20685;-86
2023/12/15 03:23:23;;;;;;;43.33;31.60;;;;;;;;;;4924314;28;21581;-84
2023/12/15 03:25:48;;;;;;;45.33;32.57;;;;;;;;;;4938718;28;20218;-87
2023/12/15 03:28:17;;;;;;;41.43;29.60;;;;;;;;;;4964192;28;20246;-86
2023/12/15 03:30:42;;;;;;;45.30;31.27;;;;;;;;;;4924796;28;20230;-85
2023/12/15 03:33:12;;;;;;;52.00;31.63;;;;;;;;;;4922470;28;20593;-88
2023/12/15 03:35:40;;;;;;;44.17;31.83;;;;;;;;;;4922973;28;20276;-86
2023/12/15 03:38:06;;;;;;;42.40;32.17;;;;;;;;;;4923302;28;20227;-86
2023/12/15 03:40:32;;;;;;;49.73;32.77;;;;;;;;;;4939623;28;20266;-85
2023/12/15 03:42:57;;;;;;;50.67;31.17;;;;;;;;;;4912352;28;20703;-86
2023/12/15 03:45:25;;;;;;;40.37;29.70;;;;;;;;;;4916591;28;20219;-86
2023/12/15 03:47:54;;;;;;;44.70;30.43;;;;;;;;;;4918226;29;20265;-85
2023/12/15 03:50:19;;;;;;;44.27;31.30;;;;;;;;;;4922255;28;20227;-87
2023/12/15 03:52:47;;;;;;;42.70;31.13;;;;;;;;;;4923740;29;20285;-87
2023/12/15 03:55:13;;;;;;;44.83;32.17;;;;;;;;;;4908750;28;20624;-87
2023/12/15 03:57:38;;;;;;;45.37;32.10;;;;;;;;;;4955889;28;20226;-86
2023/12/15 04:03:51;;;;;;;46.27;31.77;;;;;;;;;;4958611;28;20727;-88
2023/12/15 04:06:16;;;;;;;42.67;30.63;;;;;;;;;;4936883;28;20234;-86
2023/12/15 04:08:42;;;;;;;42.97;30.53;;;;;;;;;;4924585;28;20227;-86
2023/12/15 04:11:08;;;;;;;50.20;33.60;;;;;;;;;;4918600;28;20219;-86
2023/12/15 04:13:33;;;;;;;46.00;32.03;;;;;;;;;;4921560;29;20234;-88
2023/12/15 04:15:59;;;;;;;42.57;32.10;;;;;;;;;;4922979;28;20742;-87
2023/12/15 04:18:25;;;;;;;44.60;32.93;;;;;;;;;;4910156;28;20234;-87
2023/12/15 04:20:52;;;;;;;43.23;32.00;;;;;;;;;;4917777;28;20218;-86
2023/12/15 04:23:23;;;;;;;42.47;32.90;;;;;;;;;;4924302;28;20287;-87
2023/12/15 04:25:49;;;;;;;40.43;30.90;;;;;;;;;;4908266;28;20218;-83
2023/12/15 04:28:16;;;;;;;43.33;32.07;;;;;;;;;;4927660;28;20246;-86
2023/12/15 04:30:44;;;;;;;45.03;37.10;;;;;;;;;;4938345;28;20435;-85
2023/12/15 04:33:12;;;;;;;44.43;32.27;;;;;;;;;;4919468;28;20235;-86
2023/12/15 04:35:40;;;;;;;49.07;33.03;;;;;;;;;;4905199;28;20314;-85
2023/12/15 04:38:09;;;;;;;42.90;30.97;;;;;;;;;;4916758;28;20215;-86
2023/12/15 04:40:39;;;;;;;47.53;32.17;;;;;;;;;;4904473;28;20223;-85
2023/12/15 04:43:06;;;;;;;42.33;32.30;;;;;;;;;;4923040;28;20622;-85
2023/12/15 04:45:32;;;;;;;41.50;32.07;;;;;;;;;;4919290;29;20238;-84
2023/12/15 04:47:58;;;;;;;46.17;32.63;;;;;;;;;;4938266;28;20226;-87
2023/12/15 04:50:23;;;;;;;45.03;33.07;;;;;;;;;;4902225;28;20234;-84
2023/12/15 04:52:51;;;;;;;55.43;35.17;;;;;;;;;;4938164;28;20224;-86
2023/12/15 04:55:21;;;;;;;46.93;32.50;;;;;;;;;;4920176;28;20227;-84
2023/12/15 04:57:47;;;;;;;47.37;32.70;;;;;;;;;;4940851;28;20233;-87
2023/12/15 05:00:15;;;;;;;45.17;32.47;;;;;;;;;;4914976;28;20646;-87
2023/12/15 05:02:44;;;;;;;53.07;33.97;;;;;;;;;;4920968;28;20234;-87
2023/12/15 05:05:12;;;;;;;48.43;32.70;;;;;;;;;;4917738;28;20230;-87
2023/12/15 05:07:39;;;;;;;47.83;33.03;;;;;;;;;;4904085;28;20774;-85
2023/12/15 05:10:06;;;;;;;46.93;32.17;;;;;;;;;;4930409;28;20218;-85
2023/12/15 05:12:36;;;;;;;44.73;31.70;;;;;;;;;;4923448;28;20243;-86
2023/12/15 05:15:03;;;;;;;47.47;33.50;;;;;;;;;;4922720;28;20214;-87
2023/12/15 05:17:30;;;;;;;47.37;33.27;;;;;;;;;;4901144;28;20355;-78
2023/12/15 05:20:02;;;;;;;49.63;35.40;;;;;;;;;;4929933;29;20227;-77
2023/12/15 05:22:27;;;;;;;44.47;32.73;;;;;;;;;;4939976;28;20237;-78
2023/12/15 05:24:55;;;;;;;45.20;32.07;;;;;;;;;;4948298;28;20226;-77
2023/12/15 05:27:20;;;;;;;46.77;32.97;;;;;;;;;;4942248;28;20259;-78
2023/12/15 05:29:46;;;;;;;47.03;33.60;;;;;;;;;;4954904;28;20241;-78
2023/12/15 05:32:14;;;;;;;50.00;33.60;;;;;;;;;;4946079;28;20223;-78
2023/12/15 05:34:42;;;;;;;48.77;34.47;;;;;;;;;;4904331;28;20811;-78
2023/12/15 05:37:08;;;;;;;52.03;33.67;;;;;;;;;;4960643;28;20230;-77
2023/12/15 05:39:33;;;;;;;48.90;33.23;;;;;;;;;;4919035;28;20254;-77
2023/12/15 05:41:59;;;;;;;53.63;33.70;;;;;;;;;;4954222;28;20227;-78
2023/12/15 05:44:30;;;;;;;55.43;34.50;;;;;;;;;;4959859;28;20244;-78
2023/12/15 05:46:57;;;;;;;47.50;32.90;;;;;;;;;;4952616;28;20223;-77
2023/12/15 05:49:24;;;;;;;55.37;35.60;;;;;;;;;;4967103;28;20242;-77
2023/12/15 05:51:51;;;;;;;51.10;35.03;;;;;;;;;;4914703;28;20370;-77
2023/12/15 05:54:20;;;;;;;54.83;36.83;;;;;;;;;;4939751;28;20692;-77
2023/12/15 05:56:45;;;;;;;56.13;36.13;;;;;;;;;;4935003;28;20222;-78
2023/12/15 05:59:11;;;;;;;49.13;33.83;;;;;;;;;;4961723;28;20639;-77
2023/12/15 06:01:36;;;;;;;57.97;36.80;;;;;;;;;;4932966;28;20247;-78
2023/12/15 06:04:02;;;;;;;60.50;36.27;;;;;;;;;;4949343;28;20234;-77
2023/12/15 06:06:29;;;;;;;53.60;36.47;;;;;;;;;;4946636;28;20231;-76
2023/12/15 06:08:55;;;;;;;59.20;36.93;;;;;;;;;;4946317;28;20235;-77
2023/12/15 06:11:24;;;;;;;57.73;37.93;;;;;;;;;;4964075;28;20226;-77
2023/12/15 06:13:50;;;;;;;61.23;38.80;;;;;;;;;;4924855;28;20223;-77
2023/12/15 06:16:19;;;;;;;66.97;37.53;;;;;;;;;;4944036;28;20225;-77
2023/12/15 06:18:44;;;;;;;61.93;37.83;;;;;;;;;;4921968;28;20271;-80
2023/12/15 06:21:22;;;;;;;61.70;38.70;;;;;;;;;;4946398;28;20245;-77
2023/12/15 06:23:47;;;;;;;63.50;37.37;;;;;;;;;;4929450;28;20321;-78
2023/12/15 06:26:27;;;;;;;61.70;39.07;;;;;;;;;;4934823;28;20219;-76
2023/12/15 06:28:55;;;;;;;61.77;38.70;;;;;;;;;;4934338;28;20280;-78
2023/12/15 06:31:27;;;;;;;65.17;40.43;;;;;;;;;;4908165;28;20235;-78
2023/12/15 06:33:55;;;;;;;61.17;38.10;;;;;;;;;;4931479;28;20306;-78
2023/12/15 06:36:22;;;;;;;69.40;40.07;;;;;;;;;;4903216;28;20599;-77
2023/12/15 06:38:50;;;;;;;67.90;40.47;;;;;;;;;;4927876;28;20237;-78
2023/12/15 06:41:16;;;;;;;64.70;39.07;;;;;;;;;;4945950;28;20219;-78
2023/12/15 06:43:42;;;;;;;66.70;41.60;;;;;;;;;;4942699;28;20732;-77
2023/12/15 06:46:07;;;;;;;66.13;38.67;;;;;;;;;;4914470;28;20679;-78
2023/12/15 06:48:36;;;;;;;66.50;40.47;;;;;;;;;;4933315;29;20234;-77
2023/12/15 06:51:01;;;;;;;70.43;39.60;;;;;;;;;;4940809;28;20227;-78
2023/12/15 06:53:27;;;;;;;67.43;39.90;;;;;;;;;;4947395;28;20231;-78
2023/12/15 06:55:52;;;;;;;68.13;39.30;;;;;;;;;;4964711;28;20219;-78
2023/12/15 06:58:18;;;;;;;69.17;38.93;;;;;;;;;;4927115;28;20255;-79
2023/12/15 07:00:44;;;;;;;74.23;39.43;;;;;;;;;;4934504;28;20223;-79
2023/12/15 07:03:12;;;;;;;70.00;40.90;;;;;;;;;;4938762;28;20560;-78
2023/12/15 07:05:37;;;;;;;80.63;42.10;;;;;;;;;;4953667;28;20331;-79
2023/12/15 07:08:03;;;;;;;68.47;40.90;;;;;;;;;;4909146;28;20230;-77
2023/12/15 07:10:34;;;;;;;74.00;42.07;;;;;;;;;;4951055;28;20245;-78
2023/12/15 07:13:01;;;;;;;80.37;43.83;;;;;;;;;;4926106;28;20222;-78
2023/12/15 07:15:30;;;;;;;90.13;44.93;;;;;;;;;;4935286;29;20301;-78
2023/12/15 07:17:56;;;;;;;78.47;42.70;;;;;;;;;;4957103;28;20255;-78
2023/12/15 07:20:25;;;;;;;80.87;43.63;;;;;;;;;;4943473;28;20237;-78
2023/12/15 07:22:51;;;;;;;99.67;45.10;;;;;;;;;;4928991;28;20285;-78
2023/12/15 07:25:17;;;;;;;88.57;44.87;;;;;;;;;;4943680;28;20227;-77
2023/12/15 07:27:47;;;;;;;84.50;44.40;;;;;;;;;;4946716;28;20318;-78
2023/12/15 07:30:12;;;;;;;92.97;46.23;;;;;;;;;;4932686;28;20251;-78
2023/12/15 07:32:38;;;;;;;94.50;43.53;;;;;;;;;;4947277;28;20234;-77
2023/12/15 07:35:07;;;;;;;87.87;45.80;;;;;;;;;;4952692;28;20219;-78
2023/12/15 07:37:32;;;;;;;84.30;43.63;;;;;;;;;;4942038;28;20236;-78
2023/12/15 07:39:58;;;;;;;109.67;47.03;;;;;;;;;;4962550;28;20219;-78
2023/12/15 07:42:26;;;;;;;94.23;46.70;;;;;;;;;;4932411;28;20774;-78
2023/12/15 07:44:54;;;;;;;97.43;47.40;;;;;;;;;;4902973;28;20240;-79
2023/12/15 07:47:22;;;;;;;90.63;47.70;;;;;;;;;;4947501;28;20219;-78
2023/12/15 07:49:50;;;;;;;99.23;48.20;;;;;;;;;;4957081;28;20850;-78
2023/12/15 07:52:15;;;;;;;99.33;48.77;;;;;;;;;;4949451;28;20255;-77
2023/12/15 07:54:43;;;;;;;97.00;49.03;;;;;;;;;;4914478;28;20243;-79
2023/12/15 07:57:09;;;;;;;85.30;45.60;;;;;;;;;;4947453;28;20219;-78
2023/12/15 07:59:35;;;;;;;96.10;47.47;;;;;;;;;;4937169;29;20591;-78
2023/12/15 08:02:00;;;;;;;95.87;48.00;;;;;;;;;;4944566;28;20245;-80
2023/12/15 08:04:26;;;;;;;96.70;48.57;;;;;;;;;;4912591;28;20250;-78
2023/12/15 08:06:51;;;;;;;97.77;47.80;;;;;;;;;;4944349;28;20218;-78
2023/12/15 08:09:17;;;;;;;89.13;47.37;;;;;;;;;;4941642;28;20231;-77
2023/12/15 08:11:42;;;;;;;94.57;47.77;;;;;;;;;;4934736;28;20234;-78
2023/12/15 08:14:09;;;;;;;87.80;48.40;;;;;;;;;;4927118;28;20231;-78
2023/12/15 08:16:34;;;;;;;97.87;48.63;;;;;;;;;;4948963;28;20249;-78
2023/12/15 08:19:05;;;;;;;111.03;57.43;;;;;;;;;;4958002;28;20281;-79
2023/12/15 08:21:31;;;;;;;98.70;49.67;;;;;;;;;;4949373;28;20235;-78
2023/12/15 08:23:56;;;;;;;92.33;48.27;;;;;;;;;;4941224;29;20237;-79
2023/12/15 08:26:28;;;;;;;104.30;50.67;;;;;;;;;;4915534;28;20230;-79
2023/12/15 08:28:55;;;;;;;83.27;48.43;;;;;;;;;;4904209;29;20235;-78
2023/12/15 08:31:24;;;;;;;98.57;49.17;;;;;;;;;;4948603;28;20227;-78
2023/12/15 08:33:50;;;;;;;92.80;48.60;;;;;;;;;;4942684;28;20238;-79
2023/12/15 08:36:20;;;;;;;90.77;47.90;;;;;;;;;;4922897;28;20223;-79
2023/12/15 08:38:46;;;;;;;98.70;50.93;;;;;;;;;;4937617;28;20221;-78
2023/12/15 08:41:12;;;;;;;96.03;48.60;;;;;;;;;;4918986;28;20669;-77
2023/12/15 08:43:40;;;;;;;96.17;49.80;;;;;;;;;;4945621;28;20230;-78
2023/12/15 08:46:10;;;;;;;102.70;49.73;;;;;;;;;;4929838;28;20217;-79
2023/12/15 08:48:36;;;;;;;94.50;48.47;;;;;;;;;;4925408;28;20242;-78
2023/12/15 08:51:02;;;;;;;88.97;45.93;;;;;;;;;;4931355;28;20230;-79
2023/12/15 08:53:28;;;;;;;88.63;48.77;;;;;;;;;;4932638;29;20231;-78
2023/12/15 08:55:54;;;;;;;83.60;48.80;;;;;;;;;;4946650;28;20221;-78
2023/12/15 08:58:21;;;;;;;96.83;50.30;;;;;;;;;;4943780;28;20601;-78
2023/12/15 09:00:55;;;;;;;90.63;48.40;;;;;;;;;;4927674;28;20290;-79
2023/12/15 09:03:23;;;;;;;86.20;46.87;;;;;;;;;;4935898;28;20708;-79
2023/12/15 09:05:50;;;;;;;102.03;49.30;;;;;;;;;;4934048;28;20257;-78
2023/12/15 09:08:16;;;;;;;88.20;47.60;;;;;;;;;;4944235;28;20231;-78
2023/12/15 09:10:50;;;;;;;93.60;47.83;;;;;;;;;;4910586;28;20630;-78
2023/12/15 09:13:16;;;;;;;94.53;49.17;;;;;;;;;;4947397;28;20227;-79
2023/12/15 09:15:42;;;;;;;105.60;48.97;;;;;;;;;;4931211;28;20229;-78
2023/12/15 09:18:10;;;;;;;94.87;48.87;;;;;;;;;;4962675;28;20218;-79
2023/12/15 09:20:35;;;;;;;104.10;50.00;;;;;;;;;;4935853;28;20230;-78
2023/12/15 09:23:10;;;;;;;91.43;47.13;;;;;;;;;;4936061;28;20223;-78
2023/12/15 09:25:36;;;;;;;107.57;48.83;;;;;;;;;;4949211;28;20238;-78
2023/12/15 09:28:05;;;;;;;94.77;49.40;;;;;;;;;;4943682;28;20598;-78
2023/12/15 09:30:32;;;;;;;91.43;48.73;;;;;;;;;;4946021;28;20234;-78
2023/12/15 09:33:02;;;;;;;96.43;50.07;;;;;;;;;;4950370;28;20716;-79
2023/12/15 09:35:30;;;;;;;97.93;49.63;;;;;;;;;;4942873;28;20281;-78
2023/12/15 09:37:55;;;;;;;84.37;46.17;;;;;;;;;;4898437;28;20211;-78
2023/12/15 09:40:23;;;;;;;93.37;48.90;;;;;;;;;;4917932;28;20269;-78
2023/12/15 09:42:50;;;;;;;101.57;49.47;;;;;;;;;;4919665;28;20238;-78
2023/12/15 09:45:16;;;;;;;95.07;50.17;;;;;;;;;;4931434;28;20606;-78
2023/12/15 09:47:47;;;;;;;99.13;47.20;;;;;;;;;;4902798;29;20283;-78
2023/12/15 09:50:13;;;;;;;93.87;48.87;;;;;;;;;;4922662;28;20222;-80
2023/12/15 09:52:44;;;;;;;101.20;51.60;;;;;;;;;;4898325;28;20710;-78
2023/12/15 09:55:14;;;;;;;86.60;48.83;;;;;;;;;;4923327;28;20219;-77
2023/12/15 09:57:39;;;;;;;97.00;50.53;;;;;;;;;;4915496;28;20661;-77
2023/12/15 10:00:07;;;;;;;91.30;47.77;;;;;;;;;;4909986;28;20298;-78
2023/12/15 10:02:37;;;;;;;86.17;47.37;;;;;;;;;;4937782;28;20756;-78
2023/12/15 10:05:03;;;;;;;90.63;48.57;;;;;;;;;;4946597;28;20235;-77
2023/12/15 10:07:29;;;;;;;81.50;45.50;;;;;;;;;;4942157;28;20306;-79
2023/12/15 10:09:55;;;;;;;78.43;43.83;;;;;;;;;;4914226;28;20234;-77
2023/12/15 10:12:21;;;;;;;78.53;44.57;;;;;;;;;;4930805;28;20673;-78
2023/12/15 10:14:46;;;;;;;84.73;44.43;;;;;;;;;;4910818;28;20251;-78
2023/12/15 10:17:15;;;;;;;80.37;44.20;;;;;;;;;;4929886;28;20212;-78
2023/12/15 10:19:40;;;;;;;75.73;45.17;;;;;;;;;;4910899;29;20235;-78
2023/12/15 10:22:06;;;;;;;85.47;43.87;;;;;;;;;;4913960;28;20219;-77
2023/12/15 10:24:35;;;;;;;73.57;44.40;;;;;;;;;;4934252;28;20259;-80
2023/12/15 10:27:02;;;;;;;78.00;43.30;;;;;;;;;;4906059;28;20721;-77
2023/12/15 10:29:32;;;;;;;76.50;43.83;;;;;;;;;;4926679;28;20933;-81
2023/12/15 10:31:58;;;;;;;69.63;42.53;;;;;;;;;;4947022;28;20228;-78
2023/12/15 10:34:26;;;;;;;73.10;43.97;;;;;;;;;;4910389;28;20283;-78
2023/12/15 10:36:54;;;;;;;77.90;43.37;;;;;;;;;;4909590;28;20278;-78
2023/12/15 10:39:20;;;;;;;76.97;43.67;;;;;;;;;;4937872;28;20257;-78
2023/12/15 10:41:46;;;;;;;75.33;45.70;;;;;;;;;;4925115;29;20321;-82
2023/12/15 10:44:12;;;;;;;76.97;45.37;;;;;;;;;;4919268;28;20236;-80
2023/12/15 10:46:40;;;;;;;70.40;42.30;;;;;;;;;;4935241;29;20721;-77
2023/12/15 10:49:05;;;;;;;74.37;46.00;;;;;;;;;;4932932;28;20250;-78
2023/12/15 10:51:31;;;;;;;69.57;44.17;;;;;;;;;;4910833;29;20701;-79
2023/12/15 10:53:56;;;;;;;70.57;44.07;;;;;;;;;;4938326;28;20219;-79
2023/12/15 10:56:26;;;;;;;62.53;43.20;;;;;;;;;;4939499;28;20218;-80
2023/12/15 10:58:52;;;;;;;71.60;45.00;;;;;;;;;;4968642;28;20231;-80
2023/12/15 11:01:19;;;;;;;74.47;45.13;;;;;;;;;;4944100;28;20230;-79
2023/12/15 11:03:44;;;;;;;72.50;43.00;;;;;;;;;;4955153;28;20233;-80
2023/12/15 11:06:14;;;;;;;70.53;43.77;;;;;;;;;;4956884;28;20227;-80
2023/12/15 11:08:40;;;;;;;65.57;42.40;;;;;;;;;;4923964;29;20234;-79
2023/12/15 11:11:07;;;;;;;67.17;41.43;;;;;;;;;;4954658;28;20215;-81
2023/12/15 11:13:53;;;;;;;75.90;42.10;;;;;;;;;;4906690;29;20648;-79
2023/12/15 11:16:24;;;;;;;60.07;40.10;;;;;;;;;;4921005;28;20215;-80
2023/12/15 11:18:52;;;;;;;62.47;40.47;;;;;;;;;;4924762;29;20238;-79
2023/12/15 11:21:22;;;;;;;61.20;38.27;;;;;;;;;;4925831;28;20210;-77
2023/12/15 11:23:55;;;;;;;63.23;38.77;;;;;;;;;;4940395;28;20374;-79
2023/12/15 11:26:29;;;;;;;62.80;38.03;;;;;;;;;;4941723;28;20703;-78
2023/12/15 11:29:09;;;;;;;56.07;36.47;;;;;;;;;;4938764;28;20329;-79
2023/12/15 11:31:35;;;;;;;55.03;37.83;;;;;;;;;;4942221;28;20642;-79
2023/12/15 11:34:04;;;;;;;57.30;37.07;;;;;;;;;;4952174;28;20291;-79
2023/12/15 11:36:34;;;;;;;54.50;35.73;;;;;;;;;;4944008;28;20223;-78
2023/12/15 11:38:59;;;;;;;58.57;36.13;;;;;;;;;;4935337;28;20219;-78
2023/12/15 11:41:25;;;;;;;51.07;35.63;;;;;;;;;;4956478;28;20229;-77
2023/12/15 11:43:50;;;;;;;48.07;34.30;;;;;;;;;;4942823;28;20723;-79
2023/12/15 11:46:19;;;;;;;55.03;34.03;;;;;;;;;;4948674;28;20238;-78
2023/12/15 11:48:45;;;;;;;47.40;34.80;;;;;;;;;;4951322;28;20249;-79
2023/12/15 11:51:14;;;;;;;47.87;32.53;;;;;;;;;;4927592;28;20215;-79
2023/12/15 11:53:47;;;;;;;57.53;34.43;;;;;;;;;;4926072;29;20227;-79
2023/12/15 11:56:12;;;;;;;54.60;35.27;;;;;;;;;;4941708;28;20219;-79
2023/12/15 11:58:38;;;;;;;49.83;31.63;;;;;;;;;;4934786;28;20254;-79
2023/12/15 12:01:04;;;;;;;50.80;32.80;;;;;;;;;;4939321;28;20227;-77
2023/12/15 12:03:31;;;;;;;45.80;30.97;;;;;;;;;;4920209;29;20830;-77
2023/12/15 12:06:04;;;;;;;47.23;30.93;;;;;;;;;;4931613;28;20319;-77
2023/12/15 12:08:32;;;;;;;46.73;30.17;;;;;;;;;;4933951;28;20240;-76
2023/12/15 12:11:00;;;;;;;41.87;30.30;;;;;;;;;;4941322;28;20787;-76
2023/12/15 12:13:35;;;;;;;46.37;29.20;;;;;;;;;;4934004;28;20339;-77
2023/12/15 12:16:01;;;;;;;41.20;28.03;;;;;;;;;;4926376;28;20612;-78
2023/12/15 12:18:27;;;;;;;46.47;28.83;;;;;;;;;;4931787;28;20314;-77
2023/12/15 12:20:54;;;;;;;49.20;28.73;;;;;;;;;;4923884;28;20233;-77
2023/12/15 12:23:29;;;;;;;41.40;29.33;;;;;;;;;;4909468;28;20291;-76
2023/12/15 12:25:57;;;;;;;42.20;28.30;;;;;;;;;;4934774;28;20223;-78
2023/12/15 12:28:27;;;;;;;47.47;27.97;;;;;;;;;;4913698;28;20226;-78
2023/12/15 12:30:53;;;;;;;41.30;26.67;;;;;;;;;;4918978;28;20242;-78
2023/12/15 12:33:24;;;;;;;41.10;26.80;;;;;;;;;;4928082;28;20230;-77
2023/12/15 12:35:52;;;;;;;40.30;26.60;;;;;;;;;;4918286;29;20239;-77
2023/12/15 12:38:17;;;;;;;42.93;25.93;;;;;;;;;;4952720;28;20236;-77
2023/12/15 12:40:46;;;;;;;37.00;25.77;;;;;;;;;;4942544;28;20358;-76
2023/12/15 12:43:14;;;;;;;41.63;26.60;;;;;;;;;;4929897;28;20884;-77
2023/12/15 12:45:39;;;;;;;40.03;25.20;;;;;;;;;;4942439;28;20240;-78
2023/12/15 12:48:05;;;;;;;37.17;24.37;;;;;;;;;;4918309;28;20252;-79
2023/12/15 12:50:33;;;;;;;42.97;24.53;;;;;;;;;;4917043;29;20262;-76
2023/12/15 12:53:01;;;;;;;43.30;23.63;;;;;;;;;;4931539;28;20243;-77
2023/12/15 12:55:28;;;;;;;40.17;24.03;;;;;;;;;;4921898;28;20231;-77
2023/12/15 12:57:56;;;;;;;37.97;24.30;;;;;;;;;;4934051;28;20315;-77
2023/12/15 13:00:24;;;;;;;38.27;25.27;;;;;;;;;;4915000;28;20310;-77
2023/12/15 13:02:50;;;;;;;38.23;22.13;;;;;;;;;;4948303;28;20280;-78
2023/12/15 13:05:16;;;;;;;38.47;23.37;;;;;;;;;;4923795;28;20787;-78
2023/12/15 13:07:41;;;;;;;34.80;22.87;;;;;;;;;;4949057;28;20317;-79
2023/12/15 13:10:14;;;;;;;32.93;22.30;;;;;;;;;;4946609;28;20254;-78
2023/12/15 13:12:44;;;;;;;36.57;22.50;;;;;;;;;;4941992;28;20293;-78
2023/12/15 13:15:13;;;;;;;37.07;22.37;;;;;;;;;;4941386;28;20278;-78
2023/12/15 13:17:39;;;;;;;32.83;21.93;;;;;;;;;;4934726;28;20247;-78
2023/12/15 13:20:09;;;;;;;36.47;20.17;;;;;;;;;;4943185;28;20521;-79
2023/12/15 13:22:36;;;;;;;39.80;20.37;;;;;;;;;;4942265;28;20223;-78
2023/12/15 13:25:02;;;;;;;38.57;22.43;;;;;;;;;;4914237;28;20237;-77
2023/12/15 13:27:27;;;;;;;35.30;21.00;;;;;;;;;;4950167;28;20231;-76
2023/12/15 13:29:53;;;;;;;42.07;20.90;;;;;;;;;;4912227;29;20223;-78
2023/12/15 13:32:19;;;;;;;34.53;20.63;;;;;;;;;;4928782;28;20724;-78
2023/12/15 13:34:50;;;;;;;44.70;20.60;;;;;;;;;;4927125;28;20235;-78
2023/12/15 13:37:15;;;;;;;31.93;20.20;;;;;;;;;;4931834;28;20681;-76
2023/12/15 13:39:41;;;;;;;32.83;19.93;;;;;;;;;;4917685;28;20241;-78
2023/12/15 13:42:07;;;;;;;30.57;19.03;;;;;;;;;;4918149;28;20234;-77
2023/12/15 13:44:33;;;;;;;33.13;19.27;;;;;;;;;;4921182;28;20241;-78
2023/12/15 13:46:59;;;;;;;27.67;20.10;;;;;;;;;;4948014;28;20601;-78
2023/12/15 13:49:24;;;;;;;28.93;20.50;;;;;;;;;;4916762;28;20226;-77
2023/12/15 13:51:55;;;;;;;31.83;18.80;;;;;;;;;;4929966;29;20326;-78
2023/12/15 13:54:23;;;;;;;32.90;17.93;;;;;;;;;;4917264;28;20219;-78
2023/12/15 13:56:56;;;;;;;36.50;19.63;;;;;;;;;;4925023;29;20286;-78
2023/12/15 13:59:29;;;;;;;28.93;17.40;;;;;;;;;;4932994;28;20374;-78
2023/12/15 14:01:54;;;;;;;25.57;17.70;;;;;;;;;;4928552;29;20246;-78
2023/12/15 14:04:25;;;;;;;31.13;16.77;;;;;;;;;;4944261;28;20227;-78
2023/12/15 14:06:53;;;;;;;30.93;17.50;;;;;;;;;;4931444;28;20591;-79
2023/12/15 14:09:24;;;;;;;27.43;17.00;;;;;;;;;;4950896;28;20236;-76
2023/12/15 14:11:50;;;;;;;27.60;15.80;;;;;;;;;;4947455;28;20227;-77
2023/12/15 14:14:18;;;;;;;31.87;18.10;;;;;;;;;;4935812;28;20298;-77
2023/12/15 14:16:45;;;;;;;31.80;15.70;;;;;;;;;;4927354;29;20971;-77
2023/12/15 14:19:11;;;;;;;28.93;15.27;;;;;;;;;;4920887;28;20239;-77